sensor_id;sensor_type;location;lat;lon;timestamp;P1;durP1;ratioP1;P2;durP2;ratioP2
44366;SDS011;30086;57.660;12.000;2023-02-28T00:00:03;19.73;;;7.13;;
44366;SDS011;30086;57.660;12.000;2023-02-28T00:02:52;13.20;;;7.03;;
44366;SDS011;30086;57.660;12.000;2023-02-28T00:05:22;14.45;;;6.30;;
44366;SDS011;30086;57.660;12.000;2023-02-28T00:07:57;17.77;;;7.70;;
44366;SDS011;30086;57.660;12.000;2023-02-28T00:10:25;14.60;;;7.38;;
44366;SDS011;30086;57.660;12.000;2023-02-28T00:12:52;11.88;;;6.20;;
44366;SDS011;30086;57.660;12.000;2023-02-28T00:15:19;16.00;;;5.95;;
44366;SDS011;30086;57.660;12.000;2023-02-28T00:17:47;13.00;;;5.97;;
44366;SDS011;30086;57.660;12.000;2023-02-28T00:20:14;11.77;;;5.43;;
44366;SDS011;30086;57.660;12.000;2023-02-28T00:22:44;15.40;;;6.13;;
44366;SDS011;30086;57.660;12.000;2023-02-28T00:25:12;15.27;;;6.05;;
44366;SDS011;30086;57.660;12.000;2023-02-28T00:27:39;13.48;;;6.68;;
44366;SDS011;30086;57.660;12.000;2023-02-28T00:30:10;15.88;;;5.72;;
44366;SDS011;30086;57.660;12.000;2023-02-28T00:32:45;16.73;;;5.57;;
44366;SDS011;30086;57.660;12.000;2023-02-28T00:35:13;13.73;;;5.50;;
44366;SDS011;30086;57.660;12.000;2023-02-28T00:37:41;13.63;;;4.82;;
44366;SDS011;30086;57.660;12.000;2023-02-28T00:40:10;10.60;;;5.13;;
44366;SDS011;30086;57.660;12.000;2023-02-28T00:42:39;14.27;;;5.10;;
44366;SDS011;30086;57.660;12.000;2023-02-28T00:45:05;13.57;;;5.05;;
44366;SDS011;30086;57.660;12.000;2023-02-28T00:47:33;16.13;;;5.20;;
44366;SDS011;30086;57.660;12.000;2023-02-28T00:50:00;19.90;;;5.55;;
44366;SDS011;30086;57.660;12.000;2023-02-28T00:52:26;10.27;;;5.10;;
44366;SDS011;30086;57.660;12.000;2023-02-28T00:54:52;16.15;;;5.93;;
44366;SDS011;30086;57.660;12.000;2023-02-28T00:57:18;9.25;;;4.60;;
44366;SDS011;30086;57.660;12.000;2023-02-28T00:59:45;14.55;;;5.47;;
44366;SDS011;30086;57.660;12.000;2023-02-28T01:02:11;14.18;;;5.55;;
44366;SDS011;30086;57.660;12.000;2023-02-28T01:04:38;14.68;;;5.53;;
44366;SDS011;30086;57.660;12.000;2023-02-28T01:07:04;14.13;;;4.82;;
44366;SDS011;30086;57.660;12.000;2023-02-28T01:09:30;10.05;;;4.88;;
44366;SDS011;30086;57.660;12.000;2023-02-28T01:11:56;11.95;;;5.18;;
44366;SDS011;30086;57.660;12.000;2023-02-28T01:14:22;14.63;;;4.53;;
44366;SDS011;30086;57.660;12.000;2023-02-28T01:16:48;12.90;;;4.70;;
44366;SDS011;30086;57.660;12.000;2023-02-28T01:19:14;13.63;;;5.05;;
44366;SDS011;30086;57.660;12.000;2023-02-28T01:21:41;11.80;;;4.45;;
44366;SDS011;30086;57.660;12.000;2023-02-28T01:24:08;11.05;;;5.00;;
44366;SDS011;30086;57.660;12.000;2023-02-28T01:26:34;11.27;;;4.75;;
44366;SDS011;30086;57.660;12.000;2023-02-28T01:29:00;10.45;;;4.70;;
44366;SDS011;30086;57.660;12.000;2023-02-28T01:31:28;7.72;;;3.97;;
44366;SDS011;30086;57.660;12.000;2023-02-28T01:33:54;11.18;;;4.68;;
44366;SDS011;30086;57.660;12.000;2023-02-28T01:36:21;8.18;;;3.95;;
44366;SDS011;30086;57.660;12.000;2023-02-28T01:38:47;13.50;;;4.97;;
44366;SDS011;30086;57.660;12.000;2023-02-28T01:41:19;13.23;;;4.75;;
44366;SDS011;30086;57.660;12.000;2023-02-28T01:46:13;10.50;;;4.63;;
44366;SDS011;30086;57.660;12.000;2023-02-28T01:48:43;13.35;;;4.95;;
44366;SDS011;30086;57.660;12.000;2023-02-28T01:51:13;12.05;;;4.68;;
44366;SDS011;30086;57.660;12.000;2023-02-28T01:53:44;11.52;;;4.60;;
44366;SDS011;30086;57.660;12.000;2023-02-28T01:56:12;9.70;;;4.03;;
44366;SDS011;30086;57.660;12.000;2023-02-28T01:58:46;13.95;;;5.03;;
44366;SDS011;30086;57.660;12.000;2023-02-28T02:01:12;9.77;;;4.85;;
44366;SDS011;30086;57.660;12.000;2023-02-28T02:03:56;15.88;;;4.25;;
44366;SDS011;30086;57.660;12.000;2023-02-28T02:06:26;11.85;;;4.65;;
44366;SDS011;30086;57.660;12.000;2023-02-28T02:08:53;9.20;;;4.80;;
44366;SDS011;30086;57.660;12.000;2023-02-28T02:11:20;9.38;;;4.65;;
44366;SDS011;30086;57.660;12.000;2023-02-28T02:13:54;7.90;;;4.10;;
44366;SDS011;30086;57.660;12.000;2023-02-28T02:19:22;14.15;;;4.43;;
44366;SDS011;30086;57.660;12.000;2023-02-28T02:24:40;12.47;;;4.37;;
44366;SDS011;30086;57.660;12.000;2023-02-28T02:30:05;10.77;;;4.40;;
44366;SDS011;30086;57.660;12.000;2023-02-28T02:35:31;7.68;;;3.85;;
44366;SDS011;30086;57.660;12.000;2023-02-28T02:40:35;10.23;;;3.80;;
44366;SDS011;30086;57.660;12.000;2023-02-28T02:43:25;8.60;;;3.70;;
44366;SDS011;30086;57.660;12.000;2023-02-28T02:45:51;11.90;;;6.10;;
44366;SDS011;30086;57.660;12.000;2023-02-28T02:48:19;9.98;;;4.35;;
44366;SDS011;30086;57.660;12.000;2023-02-28T02:50:46;11.65;;;4.30;;
44366;SDS011;30086;57.660;12.000;2023-02-28T02:53:14;11.75;;;4.75;;
44366;SDS011;30086;57.660;12.000;2023-02-28T02:55:46;10.48;;;4.50;;
44366;SDS011;30086;57.660;12.000;2023-02-28T02:58:18;8.35;;;4.25;;
44366;SDS011;30086;57.660;12.000;2023-02-28T03:00:49;10.32;;;4.03;;
44366;SDS011;30086;57.660;12.000;2023-02-28T03:03:18;11.55;;;4.25;;
44366;SDS011;30086;57.660;12.000;2023-02-28T03:05:54;8.93;;;3.45;;
44366;SDS011;30086;57.660;12.000;2023-02-28T03:08:20;8.48;;;4.30;;
44366;SDS011;30086;57.660;12.000;2023-02-28T03:10:51;8.15;;;3.83;;
44366;SDS011;30086;57.660;12.000;2023-02-28T03:18:36;12.25;;;4.35;;
44366;SDS011;30086;57.660;12.000;2023-02-28T03:26:17;15.48;;;4.20;;
44366;SDS011;30086;57.660;12.000;2023-02-28T03:31:20;11.25;;;4.55;;
44366;SDS011;30086;57.660;12.000;2023-02-28T03:33:48;9.88;;;4.38;;
44366;SDS011;30086;57.660;12.000;2023-02-28T03:36:21;8.10;;;4.20;;
44366;SDS011;30086;57.660;12.000;2023-02-28T03:38:56;6.72;;;4.18;;
44366;SDS011;30086;57.660;12.000;2023-02-28T03:41:30;8.68;;;3.72;;
44366;SDS011;30086;57.660;12.000;2023-02-28T03:43:58;7.70;;;3.92;;
44366;SDS011;30086;57.660;12.000;2023-02-28T03:46:27;8.95;;;3.90;;
44366;SDS011;30086;57.660;12.000;2023-02-28T03:49:01;11.63;;;3.95;;
44366;SDS011;30086;57.660;12.000;2023-02-28T03:51:28;7.95;;;4.13;;
44366;SDS011;30086;57.660;12.000;2023-02-28T03:53:59;6.90;;;3.85;;
44366;SDS011;30086;57.660;12.000;2023-02-28T03:56:31;8.40;;;3.90;;
44366;SDS011;30086;57.660;12.000;2023-02-28T04:01:47;7.40;;;3.63;;
44366;SDS011;30086;57.660;12.000;2023-02-28T04:04:14;8.77;;;4.10;;
44366;SDS011;30086;57.660;12.000;2023-02-28T04:06:41;14.93;;;3.75;;
44366;SDS011;30086;57.660;12.000;2023-02-28T04:09:10;8.50;;;4.40;;
44366;SDS011;30086;57.660;12.000;2023-02-28T04:11:40;11.38;;;4.53;;
44366;SDS011;30086;57.660;12.000;2023-02-28T04:14:08;6.00;;;3.42;;
44366;SDS011;30086;57.660;12.000;2023-02-28T04:16:35;6.60;;;3.70;;
44366;SDS011;30086;57.660;12.000;2023-02-28T04:19:05;7.10;;;3.80;;
44366;SDS011;30086;57.660;12.000;2023-02-28T04:21:33;7.47;;;3.90;;
44366;SDS011;30086;57.660;12.000;2023-02-28T04:23:59;9.07;;;4.65;;
44366;SDS011;30086;57.660;12.000;2023-02-28T04:26:28;8.85;;;3.35;;
44366;SDS011;30086;57.660;12.000;2023-02-28T04:28:55;6.72;;;3.70;;
44366;SDS011;30086;57.660;12.000;2023-02-28T04:31:21;7.30;;;3.38;;
44366;SDS011;30086;57.660;12.000;2023-02-28T04:33:47;13.45;;;4.22;;
44366;SDS011;30086;57.660;12.000;2023-02-28T04:36:13;9.32;;;3.58;;
44366;SDS011;30086;57.660;12.000;2023-02-28T04:38:40;15.57;;;4.40;;
44366;SDS011;30086;57.660;12.000;2023-02-28T04:41:08;10.77;;;3.60;;
44366;SDS011;30086;57.660;12.000;2023-02-28T04:43:34;6.80;;;3.63;;
44366;SDS011;30086;57.660;12.000;2023-02-28T04:46:02;8.80;;;3.65;;
44366;SDS011;30086;57.660;12.000;2023-02-28T04:48:38;9.75;;;3.17;;
44366;SDS011;30086;57.660;12.000;2023-02-28T04:51:06;7.20;;;3.15;;
44366;SDS011;30086;57.660;12.000;2023-02-28T04:53:33;10.45;;;3.70;;
44366;SDS011;30086;57.660;12.000;2023-02-28T04:55:59;8.88;;;3.40;;
44366;SDS011;30086;57.660;12.000;2023-02-28T04:58:26;9.07;;;3.70;;
44366;SDS011;30086;57.660;12.000;2023-02-28T05:00:53;7.38;;;3.05;;
44366;SDS011;30086;57.660;12.000;2023-02-28T05:03:20;9.60;;;3.40;;
44366;SDS011;30086;57.660;12.000;2023-02-28T05:05:47;6.45;;;3.55;;
44366;SDS011;30086;57.660;12.000;2023-02-28T05:08:13;7.97;;;3.50;;
44366;SDS011;30086;57.660;12.000;2023-02-28T05:10:40;9.40;;;4.05;;
44366;SDS011;30086;57.660;12.000;2023-02-28T05:13:08;14.13;;;3.28;;
44366;SDS011;30086;57.660;12.000;2023-02-28T05:15:35;7.70;;;3.72;;
44366;SDS011;30086;57.660;12.000;2023-02-28T05:18:01;8.15;;;3.75;;
44366;SDS011;30086;57.660;12.000;2023-02-28T05:20:27;10.00;;;3.70;;
44366;SDS011;30086;57.660;12.000;2023-02-28T05:22:54;6.80;;;3.53;;
44366;SDS011;30086;57.660;12.000;2023-02-28T05:25:21;10.50;;;3.67;;
44366;SDS011;30086;57.660;12.000;2023-02-28T05:27:48;8.00;;;3.72;;
44366;SDS011;30086;57.660;12.000;2023-02-28T05:30:15;12.27;;;3.88;;
44366;SDS011;30086;57.660;12.000;2023-02-28T05:32:42;8.88;;;4.45;;
44366;SDS011;30086;57.660;12.000;2023-02-28T05:35:12;6.75;;;3.75;;
44366;SDS011;30086;57.660;12.000;2023-02-28T05:37:40;7.32;;;3.30;;
44366;SDS011;30086;57.660;12.000;2023-02-28T05:40:06;13.65;;;3.92;;
44366;SDS011;30086;57.660;12.000;2023-02-28T05:45:06;7.55;;;3.60;;
44366;SDS011;30086;57.660;12.000;2023-02-28T05:47:33;9.50;;;4.40;;
44366;SDS011;30086;57.660;12.000;2023-02-28T05:49:59;14.10;;;4.65;;
44366;SDS011;30086;57.660;12.000;2023-02-28T05:52:26;7.05;;;3.90;;
44366;SDS011;30086;57.660;12.000;2023-02-28T05:54:52;9.27;;;4.13;;
44366;SDS011;30086;57.660;12.000;2023-02-28T05:57:19;10.50;;;3.50;;
44366;SDS011;30086;57.660;12.000;2023-02-28T05:59:46;11.98;;;3.85;;
44366;SDS011;30086;57.660;12.000;2023-02-28T06:02:15;8.45;;;3.97;;
44366;SDS011;30086;57.660;12.000;2023-02-28T06:04:41;10.02;;;4.15;;
44366;SDS011;30086;57.660;12.000;2023-02-28T06:07:09;8.10;;;4.60;;
44366;SDS011;30086;57.660;12.000;2023-02-28T06:09:35;11.65;;;3.90;;
44366;SDS011;30086;57.660;12.000;2023-02-28T06:12:02;8.82;;;3.78;;
44366;SDS011;30086;57.660;12.000;2023-02-28T06:14:31;11.95;;;4.15;;
44366;SDS011;30086;57.660;12.000;2023-02-28T06:16:58;6.13;;;3.72;;
44366;SDS011;30086;57.660;12.000;2023-02-28T06:19:25;9.40;;;4.25;;
44366;SDS011;30086;57.660;12.000;2023-02-28T06:21:55;8.10;;;4.25;;
44366;SDS011;30086;57.660;12.000;2023-02-28T06:24:24;16.02;;;4.20;;
44366;SDS011;30086;57.660;12.000;2023-02-28T06:26:57;11.48;;;3.80;;
44366;SDS011;30086;57.660;12.000;2023-02-28T06:29:35;11.10;;;4.13;;
44366;SDS011;30086;57.660;12.000;2023-02-28T06:32:10;13.43;;;4.27;;
44366;SDS011;30086;57.660;12.000;2023-02-28T06:34:57;14.27;;;4.50;;
44366;SDS011;30086;57.660;12.000;2023-02-28T06:37:46;8.65;;;3.83;;
44366;SDS011;30086;57.660;12.000;2023-02-28T06:40:21;8.27;;;3.75;;
44366;SDS011;30086;57.660;12.000;2023-02-28T06:42:50;11.60;;;4.13;;
44366;SDS011;30086;57.660;12.000;2023-02-28T06:45:22;8.40;;;4.03;;
44366;SDS011;30086;57.660;12.000;2023-02-28T06:47:54;11.52;;;3.25;;
44366;SDS011;30086;57.660;12.000;2023-02-28T06:50:33;7.72;;;3.30;;
44366;SDS011;30086;57.660;12.000;2023-02-28T06:53:01;14.00;;;4.00;;
44366;SDS011;30086;57.660;12.000;2023-02-28T06:55:38;7.85;;;3.70;;
44366;SDS011;30086;57.660;12.000;2023-02-28T06:58:07;7.70;;;3.65;;
44366;SDS011;30086;57.660;12.000;2023-02-28T07:00:55;9.85;;;3.25;;
44366;SDS011;30086;57.660;12.000;2023-02-28T07:03:27;8.88;;;4.30;;
44366;SDS011;30086;57.660;12.000;2023-02-28T07:06:23;9.27;;;4.15;;
44366;SDS011;30086;57.660;12.000;2023-02-28T07:09:00;17.02;;;4.28;;
44366;SDS011;30086;57.660;12.000;2023-02-28T07:11:49;7.32;;;3.65;;
44366;SDS011;30086;57.660;12.000;2023-02-28T07:14:18;7.40;;;3.90;;
44366;SDS011;30086;57.660;12.000;2023-02-28T07:16:47;8.63;;;3.67;;
44366;SDS011;30086;57.660;12.000;2023-02-28T07:19:16;11.32;;;4.15;;
44366;SDS011;30086;57.660;12.000;2023-02-28T07:21:53;11.73;;;3.97;;
44366;SDS011;30086;57.660;12.000;2023-02-28T07:24:19;9.82;;;3.70;;
44366;SDS011;30086;57.660;12.000;2023-02-28T07:26:50;9.32;;;3.85;;
44366;SDS011;30086;57.660;12.000;2023-02-28T07:29:18;11.65;;;4.20;;
44366;SDS011;30086;57.660;12.000;2023-02-28T07:31:54;11.77;;;3.50;;
44366;SDS011;30086;57.660;12.000;2023-02-28T07:35:16;13.02;;;4.85;;
44366;SDS011;30086;57.660;12.000;2023-02-28T07:38:27;14.75;;;5.35;;
44366;SDS011;30086;57.660;12.000;2023-02-28T07:41:01;22.95;;;6.88;;
44366;SDS011;30086;57.660;12.000;2023-02-28T07:43:29;110.28;;;11.70;;
44366;SDS011;30086;57.660;12.000;2023-02-28T07:46:04;25.15;;;7.90;;
44366;SDS011;30086;57.660;12.000;2023-02-28T07:51:45;28.73;;;7.78;;
44366;SDS011;30086;57.660;12.000;2023-02-28T07:54:16;41.10;;;9.55;;
44366;SDS011;30086;57.660;12.000;2023-02-28T07:57:13;56.47;;;9.70;;
44366;SDS011;30086;57.660;12.000;2023-02-28T10:30:25;23.67;;;6.82;;
44366;SDS011;30086;57.660;12.000;2023-02-28T10:32:52;28.05;;;5.82;;
44366;SDS011;30086;57.660;12.000;2023-02-28T10:35:38;74.15;;;7.35;;
44366;SDS011;30086;57.660;12.000;2023-02-28T10:38:26;13.30;;;5.22;;
44366;SDS011;30086;57.660;12.000;2023-02-28T10:41:17;10.25;;;4.00;;
44366;SDS011;30086;57.660;12.000;2023-02-28T10:44:12;12.27;;;5.40;;
44366;SDS011;30086;57.660;12.000;2023-02-28T10:46:37;5.22;;;3.30;;
44366;SDS011;30086;57.660;12.000;2023-02-28T10:49:17;6.25;;;3.60;;
44366;SDS011;30086;57.660;12.000;2023-02-28T11:01:12;4.43;;;3.17;;
44366;SDS011;30086;57.660;12.000;2023-02-28T11:03:42;6.32;;;3.40;;
44366;SDS011;30086;57.660;12.000;2023-02-28T11:25:51;8.77;;;4.07;;
44366;SDS011;30086;57.660;12.000;2023-02-28T11:28:43;6.93;;;3.92;;
44366;SDS011;30086;57.660;12.000;2023-02-28T11:31:36;5.32;;;3.60;;
44366;SDS011;30086;57.660;12.000;2023-02-28T11:34:07;8.57;;;4.03;;
44366;SDS011;30086;57.660;12.000;2023-02-28T11:36:59;8.50;;;3.53;;
44366;SDS011;30086;57.660;12.000;2023-02-28T11:39:30;11.82;;;3.80;;
44366;SDS011;30086;57.660;12.000;2023-02-28T11:45:30;8.80;;;3.65;;
44366;SDS011;30086;57.660;12.000;2023-02-28T11:51:06;9.60;;;3.22;;
44366;SDS011;30086;57.660;12.000;2023-02-28T11:54:04;8.32;;;4.00;;
44366;SDS011;30086;57.660;12.000;2023-02-28T11:59:28;8.07;;;3.90;;
44366;SDS011;30086;57.660;12.000;2023-02-28T12:26:09;14.77;;;4.03;;
44366;SDS011;30086;57.660;12.000;2023-02-28T12:28:56;10.75;;;4.60;;
44366;SDS011;30086;57.660;12.000;2023-02-28T12:46:43;21.90;;;5.30;;
44366;SDS011;30086;57.660;12.000;2023-02-28T13:31:17;13.82;;;4.07;;
44366;SDS011;30086;57.660;12.000;2023-02-28T13:41:59;14.32;;;3.33;;
44366;SDS011;30086;57.660;12.000;2023-02-28T13:53:30;6.63;;;2.15;;
44366;SDS011;30086;57.660;12.000;2023-02-28T13:56:45;9.60;;;2.10;;
44366;SDS011;30086;57.660;12.000;2023-02-28T14:15:23;3.63;;;1.90;;
44366;SDS011;30086;57.660;12.000;2023-02-28T15:34:47;9.05;;;3.30;;
44366;SDS011;30086;57.660;12.000;2023-02-28T15:37:46;7.20;;;3.60;;
44366;SDS011;30086;57.660;12.000;2023-02-28T15:41:00;10.15;;;3.05;;
44366;SDS011;30086;57.660;12.000;2023-02-28T16:09:02;6.35;;;4.28;;
44366;SDS011;30086;57.660;12.000;2023-02-28T16:27:28;13.07;;;6.55;;
44366;SDS011;30086;57.660;12.000;2023-02-28T16:30:24;11.23;;;5.55;;
44366;SDS011;30086;57.660;12.000;2023-02-28T16:32:50;13.60;;;5.95;;
44366;SDS011;30086;57.660;12.000;2023-02-28T16:35:18;10.10;;;5.60;;
44366;SDS011;30086;57.660;12.000;2023-02-28T16:37:44;10.55;;;6.15;;
44366;SDS011;30086;57.660;12.000;2023-02-28T16:40:44;9.18;;;5.40;;
44366;SDS011;30086;57.660;12.000;2023-02-28T16:43:51;9.77;;;5.18;;
44366;SDS011;30086;57.660;12.000;2023-02-28T16:47:18;9.68;;;5.38;;
44366;SDS011;30086;57.660;12.000;2023-02-28T16:50:22;10.48;;;5.78;;
44366;SDS011;30086;57.660;12.000;2023-02-28T16:53:17;9.07;;;5.63;;
44366;SDS011;30086;57.660;12.000;2023-02-28T16:55:51;9.43;;;5.63;;
44366;SDS011;30086;57.660;12.000;2023-02-28T17:13:01;11.13;;;6.07;;
44366;SDS011;30086;57.660;12.000;2023-02-28T17:15:29;11.77;;;6.00;;
44366;SDS011;30086;57.660;12.000;2023-02-28T17:18:16;13.65;;;7.65;;
44366;SDS011;30086;57.660;12.000;2023-02-28T17:20:44;10.75;;;6.15;;
44366;SDS011;30086;57.660;12.000;2023-02-28T17:28:16;13.60;;;6.20;;
44366;SDS011;30086;57.660;12.000;2023-02-28T17:30:44;10.32;;;5.15;;
44366;SDS011;30086;57.660;12.000;2023-02-28T17:33:12;8.48;;;4.95;;
44366;SDS011;30086;57.660;12.000;2023-02-28T17:35:38;10.10;;;4.97;;
44366;SDS011;30086;57.660;12.000;2023-02-28T17:38:04;11.57;;;5.25;;
44366;SDS011;30086;57.660;12.000;2023-02-28T17:40:30;10.45;;;5.60;;
44366;SDS011;30086;57.660;12.000;2023-02-28T17:42:59;13.20;;;6.35;;
44366;SDS011;30086;57.660;12.000;2023-02-28T17:45:25;10.63;;;5.82;;
44366;SDS011;30086;57.660;12.000;2023-02-28T17:47:51;16.90;;;7.05;;
44366;SDS011;30086;57.660;12.000;2023-02-28T17:50:19;15.40;;;6.82;;
44366;SDS011;30086;57.660;12.000;2023-02-28T17:52:47;14.30;;;6.72;;
44366;SDS011;30086;57.660;12.000;2023-02-28T17:55:23;10.07;;;6.13;;
44366;SDS011;30086;57.660;12.000;2023-02-28T17:58:02;9.82;;;5.82;;
44366;SDS011;30086;57.660;12.000;2023-02-28T18:00:29;10.85;;;5.95;;
44366;SDS011;30086;57.660;12.000;2023-02-28T18:03:04;12.38;;;6.38;;
44366;SDS011;30086;57.660;12.000;2023-02-28T18:05:34;10.27;;;6.57;;
44366;SDS011;30086;57.660;12.000;2023-02-28T18:08:13;14.38;;;6.93;;
44366;SDS011;30086;57.660;12.000;2023-02-28T18:10:43;15.35;;;6.93;;
44366;SDS011;30086;57.660;12.000;2023-02-28T18:13:10;16.48;;;7.63;;
44366;SDS011;30086;57.660;12.000;2023-02-28T18:15:37;15.70;;;8.30;;
44366;SDS011;30086;57.660;12.000;2023-02-28T18:18:05;13.23;;;7.47;;
44366;SDS011;30086;57.660;12.000;2023-02-28T18:20:32;14.60;;;7.38;;
44366;SDS011;30086;57.660;12.000;2023-02-28T18:22:59;15.52;;;7.55;;
44366;SDS011;30086;57.660;12.000;2023-02-28T18:25:26;54.55;;;8.68;;
44366;SDS011;30086;57.660;12.000;2023-02-28T18:27:52;29.00;;;8.88;;
44366;SDS011;30086;57.660;12.000;2023-02-28T18:30:27;30.02;;;9.43;;
44366;SDS011;30086;57.660;12.000;2023-02-28T18:33:10;19.73;;;8.82;;
44366;SDS011;30086;57.660;12.000;2023-02-28T18:35:36;13.25;;;7.05;;
44366;SDS011;30086;57.660;12.000;2023-02-28T18:38:04;14.55;;;7.05;;
44366;SDS011;30086;57.660;12.000;2023-02-28T18:40:33;14.73;;;6.70;;
44366;SDS011;30086;57.660;12.000;2023-02-28T18:43:00;11.90;;;6.63;;
44366;SDS011;30086;57.660;12.000;2023-02-28T18:45:28;12.13;;;6.22;;
44366;SDS011;30086;57.660;12.000;2023-02-28T18:47:56;11.15;;;6.18;;
44366;SDS011;30086;57.660;12.000;2023-02-28T18:50:22;10.48;;;6.55;;
44366;SDS011;30086;57.660;12.000;2023-02-28T18:52:54;13.73;;;6.78;;
44366;SDS011;30086;57.660;12.000;2023-02-28T18:55:22;9.95;;;5.63;;
44366;SDS011;30086;57.660;12.000;2023-02-28T18:57:55;10.35;;;5.75;;
44366;SDS011;30086;57.660;12.000;2023-02-28T19:00:22;9.40;;;5.70;;
44366;SDS011;30086;57.660;12.000;2023-02-28T19:02:55;12.32;;;5.72;;
44366;SDS011;30086;57.660;12.000;2023-02-28T19:05:26;13.13;;;6.07;;
44366;SDS011;30086;57.660;12.000;2023-02-28T19:08:01;11.63;;;6.38;;
44366;SDS011;30086;57.660;12.000;2023-02-28T19:10:30;12.10;;;7.65;;
44366;SDS011;30086;57.660;12.000;2023-02-28T19:12:58;20.20;;;7.35;;
44366;SDS011;30086;57.660;12.000;2023-02-28T19:15:24;10.00;;;6.10;;
44366;SDS011;30086;57.660;12.000;2023-02-28T19:17:51;10.60;;;6.07;;
44366;SDS011;30086;57.660;12.000;2023-02-28T19:20:23;12.43;;;6.13;;
44366;SDS011;30086;57.660;12.000;2023-02-28T19:22:50;11.07;;;5.28;;
44366;SDS011;30086;57.660;12.000;2023-02-28T19:25:17;13.20;;;5.53;;
44366;SDS011;30086;57.660;12.000;2023-02-28T19:27:52;10.13;;;4.88;;
44366;SDS011;30086;57.660;12.000;2023-02-28T19:30:36;7.53;;;4.28;;
44366;SDS011;30086;57.660;12.000;2023-02-28T19:33:03;6.50;;;3.90;;
44366;SDS011;30086;57.660;12.000;2023-02-28T19:35:29;7.53;;;4.43;;
44366;SDS011;30086;57.660;12.000;2023-02-28T19:38:05;8.90;;;5.07;;
44366;SDS011;30086;57.660;12.000;2023-02-28T19:40:32;8.23;;;5.00;;
44366;SDS011;30086;57.660;12.000;2023-02-28T19:42:59;11.55;;;5.68;;
44366;SDS011;30086;57.660;12.000;2023-02-28T19:45:25;9.77;;;5.00;;
44366;SDS011;30086;57.660;12.000;2023-02-28T19:47:53;11.13;;;4.85;;
44366;SDS011;30086;57.660;12.000;2023-02-28T19:50:20;7.70;;;4.65;;
44366;SDS011;30086;57.660;12.000;2023-02-28T19:53:09;9.05;;;5.30;;
44366;SDS011;30086;57.660;12.000;2023-02-28T19:55:36;8.60;;;4.68;;
44366;SDS011;30086;57.660;12.000;2023-02-28T19:58:02;6.75;;;4.22;;
44366;SDS011;30086;57.660;12.000;2023-02-28T20:00:31;11.05;;;5.47;;
44366;SDS011;30086;57.660;12.000;2023-02-28T20:13:20;9.90;;;5.15;;
44366;SDS011;30086;57.660;12.000;2023-02-28T20:16:28;13.90;;;8.05;;
44366;SDS011;30086;57.660;12.000;2023-02-28T20:42:18;19.75;;;10.10;;
44366;SDS011;30086;57.660;12.000;2023-02-28T20:44:48;20.02;;;9.10;;
44366;SDS011;30086;57.660;12.000;2023-02-28T20:47:46;18.48;;;10.23;;
44366;SDS011;30086;57.660;12.000;2023-02-28T20:52:53;18.35;;;9.20;;
44366;SDS011;30086;57.660;12.000;2023-02-28T20:56:11;13.05;;;7.47;;
44366;SDS011;30086;57.660;12.000;2023-02-28T20:59:12;16.50;;;6.93;;
44366;SDS011;30086;57.660;12.000;2023-02-28T21:01:50;14.27;;;6.97;;
44366;SDS011;30086;57.660;12.000;2023-02-28T21:04:23;15.15;;;7.15;;
44366;SDS011;30086;57.660;12.000;2023-02-28T21:12:21;14.80;;;8.43;;
